Airfield :
LOGIN :

Register | Disclaimer

   EN    FR    IT 

 










Legend :    VFR   Marginal VFR   IFR   Intensive IFR   Very Intensive IFR
Visi :
Ceiling :
>= 8 km
>= 3000ft
5 to 8 km
1000 to 3000 ft
1500m to 5 km
500 to 1000 ft
800 to 1500m
200 to 500 ft
< 800m
< 200 ft
Symbols :   Thunderstorms  Fog  Heavy snow  Heavy precipitations  Wind > 20 kt
SIGMETs :     Misc.  Thunderstorms  Icing  Turbulence  Mountain Waves  Volcanic Ashes







- Airport Elevation : 529 ft
- IATA code : CHR
- Download approach charts


LFLX - Chateauroux

CURRENT METAR :
  • 280630Z AUTO 21011KT 9999 BKN015 BKN068 19/14 Q1002 TEMPO RA BKN030TCU

EXPIRED METARs :
  • 280600Z AUTO 22010KT 9999 FEW014 17/14 Q1002 TEMPO RA BKN030TCU
  • 280530Z AUTO 22010KT 9999 FEW011 SCT060 17/14 Q1002 TEMPO RA BKN030TCU
  • 280500Z AUTO 23008KT 9999 BKN012 OVC019 16/15 Q1002 BECMG SCT025 BKN060
  • 280430Z AUTO 22009KT 9999 BKN011 BKN027 OVC034 16/15 Q1003 BECMG SCT025 BKN060
  • 280400Z AUTO 23010KT 9999 OVC011 17/15 Q1003 TEMPO BKN006

TAF TAF LFLX
Valid from the 28 at 06:00 until the 29 at 12:00 UTC


280500Z 2806/2912 24010KT 9999 BKN014
PROB40
TEMPO 2806/2811 RA BKN030TCU
BECMG 2811/2813 SCT030
TEMPO 2811/2903 3000 SHRA BKN025TCU
PROB40
TEMPO 2815/2819 25015G30KT 1200 TSRA SCT015 BKN030CB
BECMG 2900/2903 BKN014
PROB30
TEMPO 2902/2908 BKN009
TEMPO 2909/2912 3000 SHRA BKN025TCU
PROB40
TEMPO 2910/2912 23015G30KT 1200 TSRA SCT015 BKN030CB
No reported NOTAMs for that airfield.



MET'MAP, your aeronautical weather chart ! - Copyright ORBIFLY December 2007 - Disclaimer

ORBIFLY MET'MAP TEAM :

Programming & Development : Alexandra Zaïnal
Concept & Development : Baudouin d'Aumeries
Co-Development & Prog : Marc-Olivier Méhu
Technical & hardware support : Manuel Goepfert

Contact : metmap@orbifly.com




SOURCES & CREDITS :

   NOAA